createdAt,value
2022-12-20T00:02:00.824Z,5.82
2022-12-20T00:04:29.651Z,6.07
2022-12-20T00:06:58.010Z,6.43
2022-12-20T00:09:30.895Z,5.32
2022-12-20T00:12:00.593Z,5.57
2022-12-20T00:14:29.430Z,4.53
2022-12-20T00:16:57.729Z,4.35
2022-12-20T00:19:26.313Z,5.13
2022-12-20T00:21:55.238Z,4.90
2022-12-20T00:24:26.247Z,4.68
2022-12-20T00:26:56.378Z,4.00
2022-12-20T00:29:25.063Z,3.05
2022-12-20T00:31:53.483Z,5.03
2022-12-20T00:34:22.144Z,4.15
2022-12-20T00:36:50.801Z,4.03
2022-12-20T00:39:19.321Z,3.45
2022-12-20T00:41:47.956Z,3.70
2022-12-20T00:44:17.969Z,4.35
2022-12-20T00:46:46.331Z,2.83
2022-12-20T00:49:16.533Z,3.90
2022-12-20T00:51:44.881Z,3.95
2022-12-20T00:54:13.477Z,4.20
2022-12-20T00:56:42.138Z,4.03
2022-12-20T00:59:10.724Z,3.80
2022-12-20T01:01:40.612Z,4.05
2022-12-20T01:04:09.404Z,3.28
2022-12-20T01:06:38.568Z,3.80
2022-12-20T01:11:37.496Z,3.17
2022-12-20T01:14:12.803Z,4.05
2022-12-20T01:16:44.913Z,3.50
2022-12-20T01:19:16.209Z,3.88
2022-12-20T01:21:45.506Z,3.92
2022-12-20T01:24:15.340Z,3.22
2022-12-20T01:26:44.016Z,3.10
2022-12-20T01:29:14.126Z,2.90
2022-12-20T01:31:44.633Z,4.40
2022-12-20T01:34:13.371Z,2.78
2022-12-20T01:36:42.308Z,2.70
2022-12-20T01:39:14.420Z,3.75
2022-12-20T01:41:43.689Z,4.30
2022-12-20T01:44:45.469Z,3.38
2022-12-20T01:47:15.442Z,4.35
2022-12-20T01:49:47.131Z,4.32
2022-12-20T01:52:19.761Z,5.43
2022-12-20T01:54:53.379Z,5.35
2022-12-20T01:57:27.139Z,5.43
2022-12-20T01:59:57.542Z,5.13
2022-12-20T02:02:28.652Z,6.68
2022-12-20T02:04:57.374Z,7.68
2022-12-20T02:07:28.109Z,7.28
2022-12-20T02:10:00.092Z,5.57
2022-12-20T02:12:33.850Z,6.75
2022-12-20T02:15:20.499Z,6.28
2022-12-20T02:18:03.224Z,8.13
2022-12-20T02:20:57.118Z,8.18
2022-12-20T02:23:51.682Z,8.27
2022-12-20T02:26:42.333Z,8.00
2022-12-20T02:29:25.912Z,9.05
2022-12-20T02:32:02.291Z,7.20
2022-12-20T02:34:34.621Z,8.27
2022-12-20T02:37:03.285Z,11.55
2022-12-20T02:39:33.284Z,9.32
2022-12-20T02:42:06.812Z,12.10
2022-12-20T02:44:56.321Z,10.55
2022-12-20T02:47:30.399Z,12.02
2022-12-20T02:49:58.949Z,13.05
2022-12-20T02:52:31.244Z,10.95
2022-12-20T02:55:01.904Z,12.57
2022-12-20T02:57:35.291Z,12.35
2022-12-20T03:00:08.621Z,10.00
2022-12-20T03:02:53.557Z,12.35
2022-12-20T03:05:25.005Z,12.48
2022-12-20T03:07:53.669Z,11.95
2022-12-20T03:10:23.129Z,10.70
2022-12-20T03:12:51.796Z,8.98
2022-12-20T03:15:22.977Z,11.15
2022-12-20T03:17:53.230Z,13.48
2022-12-20T03:20:21.564Z,13.02
2022-12-20T03:22:50.408Z,12.93
2022-12-20T03:25:19.421Z,13.00
2022-12-20T03:27:48.024Z,13.65
2022-12-20T03:34:05.221Z,14.73
2022-12-20T03:36:34.749Z,16.58
2022-12-20T03:39:03.371Z,14.77
2022-12-20T03:41:31.963Z,13.82
2022-12-20T03:44:00.754Z,18.05
2022-12-20T03:46:29.444Z,14.15
2022-12-20T03:48:57.752Z,15.35
2022-12-20T03:51:27.811Z,14.77
2022-12-20T03:53:56.176Z,16.15
2022-12-20T03:56:24.761Z,14.25
2022-12-20T03:58:53.057Z,16.48
2022-12-20T04:01:24.281Z,14.32
2022-12-20T04:03:53.137Z,14.35
2022-12-20T04:06:22.517Z,15.75
2022-12-20T04:08:52.202Z,16.45
2022-12-20T04:11:20.766Z,16.27
2022-12-20T04:13:50.945Z,16.52
2022-12-20T04:16:21.441Z,17.17
2022-12-20T04:18:49.814Z,13.93
2022-12-20T04:21:24.195Z,14.10
2022-12-20T04:23:54.096Z,16.00
2022-12-20T04:26:23.096Z,16.42
2022-12-20T04:28:51.649Z,15.23
2022-12-20T04:31:24.226Z,16.73
2022-12-20T04:33:53.381Z,16.80
2022-12-20T04:36:22.454Z,15.65
2022-12-20T04:38:50.885Z,17.95
2022-12-20T04:41:23.758Z,15.95
2022-12-20T04:43:53.259Z,12.57
2022-12-20T04:46:22.866Z,16.23
2022-12-20T04:48:59.813Z,13.27
2022-12-20T04:51:29.128Z,13.40
2022-12-20T04:53:56.619Z,15.88
2022-12-20T04:56:29.225Z,14.25
2022-12-20T04:59:00.680Z,15.75
2022-12-20T05:01:29.622Z,14.80
2022-12-20T05:03:58.114Z,13.40
2022-12-20T05:06:26.818Z,14.48
2022-12-20T05:08:55.785Z,12.20
2022-12-20T05:11:24.346Z,15.73
2022-12-20T05:13:53.989Z,14.40
2022-12-20T05:16:22.683Z,14.55
2022-12-20T05:18:50.993Z,16.40
2022-12-20T05:21:38.408Z,13.93
2022-12-20T05:24:25.085Z,13.90
2022-12-20T05:26:53.637Z,17.45
2022-12-20T05:29:23.662Z,15.52
2022-12-20T05:31:52.684Z,17.33
2022-12-20T05:34:21.130Z,18.63
2022-12-20T05:36:49.635Z,17.92
2022-12-20T05:39:18.341Z,13.95
2022-12-20T05:41:46.855Z,17.13
2022-12-20T05:44:15.316Z,15.55
2022-12-20T05:46:45.283Z,15.57
2022-12-20T05:49:13.672Z,17.08
2022-12-20T05:51:42.319Z,16.33
2022-12-20T05:54:11.450Z,16.98
2022-12-20T05:56:40.570Z,16.45
2022-12-20T05:59:09.539Z,17.42
2022-12-20T06:01:38.347Z,14.25
2022-12-20T06:04:08.144Z,16.52
2022-12-20T06:06:36.808Z,15.82
2022-12-20T06:09:05.321Z,14.27
2022-12-20T06:11:33.866Z,13.30
2022-12-20T06:14:02.152Z,17.20
2022-12-20T06:16:31.516Z,16.63
2022-12-20T06:19:00.876Z,15.93
2022-12-20T06:21:32.316Z,16.90
2022-12-20T06:24:01.645Z,18.67
2022-12-20T06:26:36.137Z,18.38
2022-12-20T06:29:07.268Z,17.10
2022-12-20T06:31:36.081Z,18.17
2022-12-20T06:34:04.421Z,17.08
2022-12-20T06:36:34.395Z,19.40
2022-12-20T06:39:09.220Z,16.45
2022-12-20T06:41:38.622Z,16.15
2022-12-20T06:44:07.499Z,16.38
2022-12-20T06:46:36.454Z,14.50
2022-12-20T06:49:04.930Z,16.98
2022-12-20T06:51:34.908Z,16.40
2022-12-20T06:54:03.124Z,17.38
2022-12-20T06:56:36.083Z,15.70
2022-12-20T06:59:07.751Z,15.85
2022-12-20T07:01:36.642Z,16.63
2022-12-20T07:04:05.257Z,16.60
2022-12-20T07:06:35.343Z,18.23
2022-12-20T07:09:04.132Z,16.70
2022-12-20T07:11:32.839Z,14.85
2022-12-20T07:14:01.166Z,17.17
2022-12-20T07:16:29.750Z,15.10
2022-12-20T07:18:58.003Z,15.77
2022-12-20T07:21:26.562Z,16.93
2022-12-20T07:23:57.151Z,15.65
2022-12-20T07:26:25.775Z,14.88
2022-12-20T07:28:54.394Z,15.18
2022-12-20T07:31:23.052Z,16.40
2022-12-20T07:33:51.437Z,16.40
2022-12-20T07:36:20.021Z,14.88
2022-12-20T07:38:49.120Z,14.77
2022-12-20T07:43:47.829Z,16.88
2022-12-20T07:46:17.285Z,17.85
2022-12-20T07:48:46.128Z,16.67
2022-12-20T07:51:19.577Z,15.32
2022-12-20T07:53:53.687Z,13.88
2022-12-20T07:56:24.183Z,16.38
2022-12-20T07:58:56.335Z,18.27
2022-12-20T08:01:25.565Z,18.02
2022-12-20T08:03:59.345Z,18.25
2022-12-20T08:06:28.185Z,15.48
2022-12-20T08:09:02.440Z,18.40
2022-12-20T08:11:36.348Z,18.05
2022-12-20T08:14:08.348Z,14.43
2022-12-20T08:16:37.161Z,17.90
2022-12-20T08:19:05.764Z,16.77
2022-12-20T08:21:34.487Z,14.23
2022-12-20T08:24:02.823Z,18.80
2022-12-20T08:26:32.892Z,17.73
2022-12-20T08:29:01.513Z,18.65
2022-12-20T08:31:30.142Z,18.50
2022-12-20T08:33:58.507Z,16.73
2022-12-20T08:36:27.105Z,16.33
2022-12-20T08:38:55.839Z,17.33
2022-12-20T08:41:25.353Z,18.30
2022-12-20T08:43:55.595Z,16.38
2022-12-20T08:46:24.383Z,19.00
2022-12-20T08:48:53.212Z,17.07
2022-12-20T08:51:21.931Z,14.27
2022-12-20T08:53:50.260Z,16.27
2022-12-20T08:56:20.119Z,14.75
2022-12-20T08:58:49.549Z,18.60
2022-12-20T09:01:24.446Z,17.35
2022-12-20T09:03:52.838Z,16.30
2022-12-20T09:06:22.940Z,16.85
2022-12-20T09:08:51.353Z,16.35
2022-12-20T09:11:22.489Z,15.43
2022-12-20T09:13:53.402Z,14.38
2022-12-20T09:16:24.951Z,14.10
2022-12-20T09:18:59.185Z,13.65
2022-12-20T09:21:31.250Z,16.10
2022-12-20T09:23:59.784Z,16.75
2022-12-20T09:26:28.506Z,16.00
2022-12-20T09:28:56.690Z,15.40
2022-12-20T09:31:27.750Z,16.85
2022-12-20T09:33:58.109Z,17.45
2022-12-20T09:36:29.006Z,16.55
2022-12-20T09:38:58.200Z,16.27
2022-12-20T09:44:01.461Z,15.00
2022-12-20T09:46:31.764Z,14.95
2022-12-20T09:49:00.100Z,16.20
2022-12-20T09:51:47.152Z,14.77
2022-12-20T09:54:24.885Z,14.07
2022-12-20T09:57:00.010Z,14.45
2022-12-20T09:59:31.994Z,15.27
2022-12-20T10:02:35.459Z,14.70
2022-12-20T10:04:59.587Z,14.43
2022-12-20T10:07:39.119Z,15.13
2022-12-20T10:13:01.219Z,14.75
2022-12-20T10:15:34.529Z,14.20
2022-12-20T10:18:25.817Z,15.95
2022-12-20T10:21:01.189Z,15.90
2022-12-20T10:23:36.507Z,16.02
2022-12-20T10:26:11.445Z,13.43
2022-12-20T10:28:41.109Z,16.35
2022-12-20T10:33:42.780Z,14.93
2022-12-20T10:36:26.293Z,12.77
2022-12-20T10:38:56.991Z,12.73
2022-12-20T10:41:27.882Z,14.27
2022-12-20T10:44:01.834Z,13.45
2022-12-20T10:46:38.974Z,14.25
2022-12-20T10:49:31.575Z,14.10
2022-12-20T10:52:02.813Z,13.60
2022-12-20T10:54:34.570Z,15.73
2022-12-20T10:57:14.966Z,14.98
2022-12-20T10:59:47.199Z,13.27
2022-12-20T11:02:42.588Z,16.10
2022-12-20T11:05:25.461Z,17.23
2022-12-20T11:10:46.286Z,14.32
2022-12-20T11:13:25.743Z,14.00
2022-12-20T11:16:01.486Z,15.30
2022-12-20T11:18:39.497Z,14.77
2022-12-20T11:21:24.431Z,15.88
2022-12-20T11:24:09.743Z,13.27
2022-12-20T11:26:54.692Z,12.20
2022-12-20T11:29:48.054Z,13.90
2022-12-20T11:32:29.696Z,13.75
2022-12-20T11:35:07.643Z,14.32
2022-12-20T11:37:47.529Z,13.80
2022-12-20T11:40:28.637Z,15.32
2022-12-20T11:43:19.680Z,14.00
2022-12-20T11:46:03.647Z,13.32
2022-12-20T11:48:55.495Z,14.30
2022-12-20T11:51:26.905Z,14.70
2022-12-20T11:54:02.627Z,14.80
2022-12-20T11:56:43.272Z,14.85
2022-12-20T11:59:20.406Z,16.83
2022-12-20T12:01:56.797Z,13.85
2022-12-20T12:04:28.681Z,14.95
2022-12-20T12:07:02.863Z,15.30
2022-12-20T12:09:37.928Z,15.50
2022-12-20T12:12:13.666Z,15.10
2022-12-20T12:14:55.226Z,14.75
2022-12-20T12:17:31.163Z,15.95
2022-12-20T12:20:21.575Z,14.80
2022-12-20T12:22:52.754Z,15.40
2022-12-20T12:25:24.393Z,15.32
2022-12-20T12:27:52.954Z,14.85
2022-12-20T12:30:22.114Z,14.48
2022-12-20T12:32:56.053Z,12.80
2022-12-20T12:35:53.651Z,13.10
2022-12-20T12:38:44.972Z,13.20
2022-12-20T12:41:35.721Z,14.25
2022-12-20T12:44:24.575Z,14.55
2022-12-20T12:47:00.104Z,13.88
2022-12-20T12:49:31.721Z,15.38
2022-12-20T12:52:02.258Z,14.77
2022-12-20T12:54:37.489Z,13.20
2022-12-20T12:57:14.912Z,14.30
2022-12-20T12:59:48.253Z,15.40
2022-12-20T13:02:37.360Z,14.48
2022-12-20T13:05:36.952Z,13.38
2022-12-20T13:08:16.201Z,14.55
2022-12-20T13:11:14.189Z,15.75
2022-12-20T13:13:43.941Z,14.35
2022-12-20T13:19:14.136Z,14.90
2022-12-20T13:21:46.625Z,13.60
2022-12-20T13:24:56.380Z,14.32
2022-12-20T13:27:36.094Z,13.30
2022-12-20T13:30:28.628Z,14.63
2022-12-20T13:33:25.754Z,13.05
2022-12-20T13:36:03.171Z,11.65
2022-12-20T13:38:56.279Z,13.10
2022-12-20T13:41:45.353Z,13.52
2022-12-20T13:44:45.165Z,13.25
2022-12-20T13:47:51.110Z,13.68
2022-12-20T13:50:27.320Z,13.63
2022-12-20T13:52:57.433Z,13.70
2022-12-20T13:55:33.920Z,12.25
2022-12-20T13:58:14.664Z,13.77
2022-12-20T14:00:43.137Z,13.85
2022-12-20T14:03:21.897Z,14.30
2022-12-20T14:05:50.682Z,12.73
2022-12-20T14:08:22.997Z,13.68
2022-12-20T14:10:53.348Z,13.98
2022-12-20T14:13:24.712Z,14.40
2022-12-20T14:15:54.069Z,14.23
2022-12-20T14:18:25.913Z,13.45
2022-12-20T14:20:57.146Z,14.77
2022-12-20T14:23:31.331Z,14.82
2022-12-20T14:26:02.243Z,14.73
2022-12-20T14:28:36.788Z,16.48
2022-12-20T14:31:06.859Z,14.40
2022-12-20T14:33:39.234Z,14.45
2022-12-20T14:36:19.160Z,15.48
2022-12-20T14:38:49.657Z,14.02
2022-12-20T14:41:36.169Z,14.40
2022-12-20T14:44:15.637Z,15.43
2022-12-20T14:46:50.397Z,15.48
2022-12-20T14:49:25.063Z,14.93
2022-12-20T14:52:06.581Z,15.77
2022-12-20T14:57:26.774Z,15.45
2022-12-20T15:00:02.229Z,14.63
2022-12-20T15:02:40.890Z,14.70
2022-12-20T15:05:46.252Z,14.32
2022-12-20T15:08:16.159Z,15.45
2022-12-20T15:10:51.175Z,14.50
2022-12-20T15:13:22.205Z,13.82
2022-12-20T15:15:50.717Z,14.38
2022-12-20T15:18:21.418Z,14.73
2022-12-20T15:21:02.057Z,15.77
2022-12-20T15:23:30.573Z,13.85
2022-12-20T15:25:59.207Z,16.83
2022-12-20T15:28:28.425Z,17.35
2022-12-20T15:30:57.145Z,15.07
2022-12-20T15:33:29.050Z,12.17
2022-12-20T15:35:59.731Z,13.60
2022-12-20T15:38:55.262Z,14.43
2022-12-20T15:41:21.235Z,17.30
2022-12-20T15:43:52.551Z,13.93
2022-12-20T15:46:21.159Z,13.40
2022-12-20T15:48:49.489Z,12.18
2022-12-20T15:51:25.180Z,15.00
2022-12-20T15:53:55.477Z,17.08
2022-12-20T15:56:26.694Z,16.88
2022-12-20T15:58:54.929Z,17.80
2022-12-20T16:01:27.282Z,15.80
2022-12-20T16:03:55.560Z,14.88
2022-12-20T16:06:25.514Z,15.97
2022-12-20T16:08:54.172Z,17.50
2022-12-20T16:11:25.099Z,17.58
2022-12-20T16:13:53.327Z,15.75
2022-12-20T16:16:23.756Z,16.70
2022-12-20T16:18:53.800Z,15.25
2022-12-20T16:21:24.081Z,17.48
2022-12-20T16:23:55.035Z,16.80
2022-12-20T16:26:26.368Z,16.30
2022-12-20T16:28:55.610Z,16.17
2022-12-20T16:33:54.563Z,17.48
2022-12-20T16:36:23.860Z,17.35
2022-12-20T16:38:54.896Z,17.08
2022-12-20T16:41:27.460Z,18.38
2022-12-20T16:43:57.490Z,17.98
2022-12-20T16:46:31.199Z,19.30
2022-12-20T16:49:01.090Z,19.52
2022-12-20T16:51:31.666Z,18.15
2022-12-20T16:54:19.499Z,17.65
2022-12-20T16:56:52.082Z,18.25
2022-12-20T16:59:22.474Z,18.92
2022-12-20T17:01:53.745Z,18.10
2022-12-20T17:04:22.405Z,18.88
2022-12-20T17:06:51.302Z,17.98
2022-12-20T17:12:15.311Z,16.83
2022-12-20T17:14:44.690Z,18.70
2022-12-20T17:17:13.831Z,17.60
2022-12-20T17:19:42.050Z,17.85
2022-12-20T17:22:24.145Z,19.37
2022-12-20T17:24:53.753Z,18.15
2022-12-20T17:27:22.371Z,18.02
2022-12-20T17:29:52.293Z,19.40
2022-12-20T17:32:23.411Z,19.85
2022-12-20T17:34:52.233Z,18.45
2022-12-20T17:37:21.197Z,19.27
2022-12-20T17:39:49.894Z,20.30
2022-12-20T17:42:22.163Z,19.73
2022-12-20T17:44:53.744Z,19.88
2022-12-20T17:47:22.259Z,15.85
2022-12-20T17:49:50.654Z,19.20
2022-12-20T17:52:20.679Z,18.67
2022-12-20T17:54:48.792Z,18.20
2022-12-20T17:57:17.474Z,18.17
2022-12-20T17:59:47.213Z,19.47
2022-12-20T18:02:22.423Z,19.92
2022-12-20T18:04:52.061Z,19.63
2022-12-20T18:07:20.777Z,17.63
2022-12-20T18:09:50.146Z,18.60
2022-12-20T18:12:19.187Z,17.48
2022-12-20T18:14:51.102Z,18.92
2022-12-20T18:17:19.553Z,18.23
2022-12-20T18:19:47.736Z,19.55
2022-12-20T18:22:17.003Z,17.40
2022-12-20T18:24:45.200Z,17.75
2022-12-20T18:27:13.815Z,18.43
2022-12-20T18:29:41.990Z,19.40
2022-12-20T18:32:12.604Z,19.10
2022-12-20T18:34:48.824Z,18.50
2022-12-20T18:37:17.277Z,19.33
2022-12-20T18:39:45.754Z,18.02
2022-12-20T18:42:14.196Z,17.13
2022-12-20T18:44:42.371Z,19.00
2022-12-20T18:47:12.156Z,18.80
2022-12-20T18:52:11.515Z,17.83
2022-12-20T18:54:43.187Z,16.98
2022-12-20T18:57:14.368Z,17.38
2022-12-20T18:59:42.546Z,19.63
2022-12-20T19:02:14.572Z,19.65
2022-12-20T19:04:42.854Z,20.58
2022-12-20T19:07:11.322Z,18.70
2022-12-20T19:09:39.525Z,17.98
2022-12-20T19:12:08.190Z,19.40
2022-12-20T19:14:36.363Z,19.85
2022-12-20T19:17:04.981Z,19.13
2022-12-20T19:19:34.519Z,18.77
2022-12-20T19:22:03.219Z,19.75
2022-12-20T19:24:31.432Z,19.42
2022-12-20T19:26:59.921Z,20.43
2022-12-20T19:29:28.136Z,20.10
2022-12-20T19:31:56.650Z,19.07
2022-12-20T19:34:24.842Z,22.65
2022-12-20T19:36:54.700Z,19.43
2022-12-20T19:39:24.098Z,19.60
2022-12-20T19:42:23.050Z,18.40
2022-12-20T19:44:41.591Z,20.70
2022-12-20T19:47:10.162Z,17.67
2022-12-20T19:49:38.445Z,19.45
2022-12-20T19:52:08.617Z,19.65
2022-12-20T19:54:37.144Z,18.02
2022-12-20T19:57:06.248Z,18.20
2022-12-20T19:59:36.680Z,18.85
2022-12-20T20:02:07.797Z,19.52
2022-12-20T20:04:36.089Z,19.60
2022-12-20T20:07:04.779Z,19.77
2022-12-20T20:09:34.481Z,20.15
2022-12-20T20:12:03.539Z,20.30
2022-12-20T20:14:31.726Z,20.35
2022-12-20T20:17:00.221Z,20.15
2022-12-20T20:19:30.503Z,20.30
2022-12-20T20:21:58.912Z,20.55
2022-12-20T20:24:27.040Z,19.30
2022-12-20T20:26:56.923Z,19.20
2022-12-20T20:29:25.192Z,17.80
2022-12-20T20:31:53.774Z,19.35
2022-12-20T20:34:22.075Z,20.02
2022-12-20T20:36:50.919Z,17.52
2022-12-20T20:39:19.341Z,18.98
2022-12-20T20:41:48.089Z,18.65
2022-12-20T20:44:17.582Z,20.35
2022-12-20T20:46:46.271Z,19.17
2022-12-20T20:49:14.458Z,19.80
2022-12-20T20:51:42.856Z,19.42
2022-12-20T20:54:10.984Z,19.95
2022-12-20T20:56:39.407Z,19.60
2022-12-20T20:59:11.862Z,19.75
2022-12-20T21:01:47.356Z,21.40
2022-12-20T21:04:15.564Z,21.85
2022-12-20T21:06:44.242Z,21.10
2022-12-20T21:09:12.662Z,19.73
2022-12-20T21:11:41.264Z,19.60
2022-12-20T21:14:09.718Z,20.63
2022-12-20T21:16:38.706Z,20.23
2022-12-20T21:19:10.659Z,21.70
2022-12-20T21:21:39.140Z,20.08
2022-12-20T21:24:07.912Z,19.63
2022-12-20T21:26:36.441Z,20.42
2022-12-20T21:29:05.016Z,19.88
2022-12-20T21:31:33.559Z,18.50
2022-12-20T21:34:02.030Z,20.45
2022-12-20T21:36:31.986Z,19.25
2022-12-20T21:39:01.783Z,18.75
2022-12-20T21:41:30.820Z,19.20
2022-12-20T21:44:00.829Z,20.40
2022-12-20T21:46:31.947Z,21.25
2022-12-20T21:49:00.530Z,18.70
2022-12-20T21:51:31.812Z,21.80
2022-12-20T21:54:01.777Z,20.80
2022-12-20T21:56:31.685Z,20.67
2022-12-20T21:58:59.919Z,21.73
2022-12-20T22:01:30.102Z,21.40
2022-12-20T22:04:00.323Z,21.33
2022-12-20T22:06:29.342Z,18.85
2022-12-20T22:08:59.870Z,19.52
2022-12-20T22:11:28.637Z,19.30
2022-12-20T22:13:57.853Z,19.55
2022-12-20T22:16:29.262Z,20.35
2022-12-20T22:18:58.684Z,20.25
2022-12-20T22:21:28.964Z,20.25
2022-12-20T22:23:58.131Z,19.48
2022-12-20T22:28:59.735Z,18.83
2022-12-20T22:31:28.686Z,20.58
2022-12-20T22:33:58.459Z,20.00
2022-12-20T22:36:27.898Z,19.50
2022-12-20T22:38:57.820Z,18.85
2022-12-20T22:41:29.990Z,18.13
2022-12-20T22:43:59.523Z,18.90
2022-12-20T22:46:29.635Z,18.55
2022-12-20T22:48:58.298Z,21.20
2022-12-20T22:51:27.801Z,19.05
2022-12-20T22:56:24.558Z,18.70
2022-12-20T22:58:54.160Z,18.93
2022-12-20T23:01:23.006Z,20.05
2022-12-20T23:03:51.603Z,19.50
2022-12-20T23:06:21.919Z,19.13
2022-12-20T23:08:50.333Z,19.00
2022-12-20T23:11:38.624Z,18.73
2022-12-20T23:14:29.796Z,18.13
2022-12-20T23:16:59.165Z,20.05
2022-12-20T23:19:27.644Z,19.05
2022-12-20T23:22:13.586Z,18.80
2022-12-20T23:24:41.745Z,20.10
2022-12-20T23:27:10.478Z,18.13
2022-12-20T23:29:40.739Z,18.95
2022-12-20T23:32:09.243Z,18.75
2022-12-20T23:34:37.452Z,17.55
2022-12-20T23:37:08.012Z,21.03
2022-12-20T23:39:36.182Z,18.75
2022-12-20T23:42:04.781Z,22.70
2022-12-20T23:44:32.896Z,20.38
2022-12-20T23:47:05.913Z,20.00
2022-12-20T23:49:34.575Z,20.48
2022-12-20T23:52:03.022Z,18.83
2022-12-20T23:54:31.200Z,18.88
2022-12-20T23:56:59.623Z,18.50
2022-12-20T23:59:27.878Z,19.65
